sensor_id;sensor_type;location;lat;lon;timestamp;pressure;altitude;pressure_sealevel;temperature;humidity
21100;BME280;10708;50.824;4.408;2023-02-18T00:00:35;101453.13;;;10.82;100.00
21100;BME280;10708;50.824;4.408;2023-02-18T00:05:37;101449.56;;;10.85;100.00
21100;BME280;10708;50.824;4.408;2023-02-18T00:10:41;101444.28;;;10.85;100.00
21100;BME280;10708;50.824;4.408;2023-02-18T00:15:44;101456.59;;;10.84;100.00
21100;BME280;10708;50.824;4.408;2023-02-18T00:20:46;101448.66;;;10.86;100.00
21100;BME280;10708;50.824;4.408;2023-02-18T00:25:58;101421.44;;;10.85;100.00
21100;BME280;10708;50.824;4.408;2023-02-18T00:31:05;101405.63;;;10.85;100.00
21100;BME280;10708;50.824;4.408;2023-02-18T00:36:09;101415.47;;;10.77;100.00
21100;BME280;10708;50.824;4.408;2023-02-18T00:41:14;101422.41;;;10.80;100.00
21100;BME280;10708;50.824;4.408;2023-02-18T00:46:16;101418.88;;;10.81;100.00
21100;BME280;10708;50.824;4.408;2023-02-18T00:51:19;101408.38;;;10.79;100.00
21100;BME280;10708;50.824;4.408;2023-02-18T00:56:23;101405.09;;;10.69;100.00
21100;BME280;10708;50.824;4.408;2023-02-18T01:01:25;101391.69;;;10.79;100.00
21100;BME280;10708;50.824;4.408;2023-02-18T01:06:28;101387.38;;;10.76;100.00
21100;BME280;10708;50.824;4.408;2023-02-18T01:11:32;101381.38;;;10.69;100.00
21100;BME280;10708;50.824;4.408;2023-02-18T01:16:34;101381.22;;;10.77;100.00
21100;BME280;10708;50.824;4.408;2023-02-18T01:21:36;101380.38;;;10.75;100.00
21100;BME280;10708;50.824;4.408;2023-02-18T01:26:40;101376.00;;;10.74;100.00
21100;BME280;10708;50.824;4.408;2023-02-18T01:31:42;101381.34;;;10.71;100.00
21100;BME280;10708;50.824;4.408;2023-02-18T01:36:45;101366.47;;;10.68;100.00
21100;BME280;10708;50.824;4.408;2023-02-18T01:41:48;101374.44;;;10.67;100.00
21100;BME280;10708;50.824;4.408;2023-02-18T01:46:51;101367.41;;;10.67;100.00
21100;BME280;10708;50.824;4.408;2023-02-18T01:51:55;101356.16;;;10.59;100.00
21100;BME280;10708;50.824;4.408;2023-02-18T01:57:02;101353.47;;;10.61;100.00
21100;BME280;10708;50.824;4.408;2023-02-18T02:02:10;101344.69;;;10.62;100.00
21100;BME280;10708;50.824;4.408;2023-02-18T02:07:15;101335.97;;;10.58;100.00
21100;BME280;10708;50.824;4.408;2023-02-18T02:12:35;101347.44;;;10.57;100.00
21100;BME280;10708;50.824;4.408;2023-02-18T02:17:51;101342.28;;;10.51;100.00
21100;BME280;10708;50.824;4.408;2023-02-18T02:23:18;101328.06;;;10.58;100.00
21100;BME280;10708;50.824;4.408;2023-02-18T02:28:53;101329.06;;;10.54;100.00
21100;BME280;10708;50.824;4.408;2023-02-18T02:34:29;101325.53;;;10.55;100.00
21100;BME280;10708;50.824;4.408;2023-02-18T02:39:42;101305.28;;;10.57;100.00
21100;BME280;10708;50.824;4.408;2023-02-18T02:44:53;101307.06;;;10.57;100.00
21100;BME280;10708;50.824;4.408;2023-02-18T02:50:00;101300.09;;;10.54;100.00
21100;BME280;10708;50.824;4.408;2023-02-18T02:55:07;101300.97;;;10.55;100.00
21100;BME280;10708;50.824;4.408;2023-02-18T03:00:11;101305.38;;;10.54;100.00
21100;BME280;10708;50.824;4.408;2023-02-18T03:05:27;101296.53;;;10.57;100.00
21100;BME280;10708;50.824;4.408;2023-02-18T03:10:46;101296.66;;;10.51;100.00
21100;BME280;10708;50.824;4.408;2023-02-18T03:15:56;101299.31;;;10.49;100.00
21100;BME280;10708;50.824;4.408;2023-02-18T03:21:06;101294.91;;;10.50;100.00
21100;BME280;10708;50.824;4.408;2023-02-18T03:26:12;101282.84;;;10.41;100.00
21100;BME280;10708;50.824;4.408;2023-02-18T03:31:19;101275.72;;;10.46;100.00
21100;BME280;10708;50.824;4.408;2023-02-18T03:36:23;101261.00;;;10.38;100.00
21100;BME280;10708;50.824;4.408;2023-02-18T03:41:26;101264.56;;;10.35;100.00
21100;BME280;10708;50.824;4.408;2023-02-18T03:46:29;101255.03;;;10.29;100.00
21100;BME280;10708;50.824;4.408;2023-02-18T03:51:34;101262.84;;;10.34;100.00
21100;BME280;10708;50.824;4.408;2023-02-18T03:56:36;101257.63;;;10.31;100.00
21100;BME280;10708;50.824;4.408;2023-02-18T04:01:38;101260.25;;;10.31;100.00
21100;BME280;10708;50.824;4.408;2023-02-18T04:06:42;101252.38;;;10.31;100.00
21100;BME280;10708;50.824;4.408;2023-02-18T04:11:44;101249.00;;;10.26;100.00
21100;BME280;10708;50.824;4.408;2023-02-18T04:16:47;101237.59;;;10.25;100.00
21100;BME280;10708;50.824;4.408;2023-02-18T04:21:50;101217.41;;;10.26;100.00
21100;BME280;10708;50.824;4.408;2023-02-18T04:26:52;101203.44;;;10.22;100.00
21100;BME280;10708;50.824;4.408;2023-02-18T04:31:55;101205.22;;;10.20;100.00
21100;BME280;10708;50.824;4.408;2023-02-18T04:36:58;101207.97;;;10.16;100.00
21100;BME280;10708;50.824;4.408;2023-02-18T04:42:01;101220.19;;;10.18;100.00
21100;BME280;10708;50.824;4.408;2023-02-18T04:47:08;101225.50;;;10.15;100.00
21100;BME280;10708;50.824;4.408;2023-02-18T04:52:12;101213.19;;;10.17;100.00
21100;BME280;10708;50.824;4.408;2023-02-18T04:57:15;101215.06;;;10.11;100.00
21100;BME280;10708;50.824;4.408;2023-02-18T05:02:17;101222.06;;;10.12;100.00
21100;BME280;10708;50.824;4.408;2023-02-18T05:07:20;101221.28;;;10.08;100.00
21100;BME280;10708;50.824;4.408;2023-02-18T05:12:23;101226.50;;;10.10;100.00
21100;BME280;10708;50.824;4.408;2023-02-18T05:17:25;101233.59;;;10.08;100.00
21100;BME280;10708;50.824;4.408;2023-02-18T05:22:29;101232.81;;;10.03;100.00
21100;BME280;10708;50.824;4.408;2023-02-18T05:27:31;101218.81;;;10.00;100.00
21100;BME280;10708;50.824;4.408;2023-02-18T05:32:34;101211.81;;;9.99;100.00
21100;BME280;10708;50.824;4.408;2023-02-18T05:37:38;101220.84;;;9.89;100.00
21100;BME280;10708;50.824;4.408;2023-02-18T05:42:40;101199.69;;;9.94;100.00
21100;BME280;10708;50.824;4.408;2023-02-18T05:47:43;101188.28;;;9.95;100.00
21100;BME280;10708;50.824;4.408;2023-02-18T05:52:46;101180.56;;;9.87;100.00
21100;BME280;10708;50.824;4.408;2023-02-18T05:57:48;101183.09;;;9.90;100.00
21100;BME280;10708;50.824;4.408;2023-02-18T06:02:51;101189.56;;;9.77;100.00
21100;BME280;10708;50.824;4.408;2023-02-18T06:07:54;101185.09;;;9.79;100.00
21100;BME280;10708;50.824;4.408;2023-02-18T06:12:57;101193.13;;;9.75;100.00
21100;BME280;10708;50.824;4.408;2023-02-18T06:18:00;101179.06;;;9.76;100.00
21100;BME280;10708;50.824;4.408;2023-02-18T06:23:04;101183.59;;;9.69;100.00
21100;BME280;10708;50.824;4.408;2023-02-18T06:28:07;101171.28;;;9.70;100.00
21100;BME280;10708;50.824;4.408;2023-02-18T06:33:09;101177.53;;;9.67;100.00
21100;BME280;10708;50.824;4.408;2023-02-18T06:38:13;101186.22;;;9.69;100.00
21100;BME280;10708;50.824;4.408;2023-02-18T06:43:15;101175.78;;;9.66;100.00
21100;BME280;10708;50.824;4.408;2023-02-18T06:48:17;101195.88;;;9.69;100.00
21100;BME280;10708;50.824;4.408;2023-02-18T06:53:21;101190.69;;;9.66;100.00
21100;BME280;10708;50.824;4.408;2023-02-18T06:58:23;101200.41;;;9.62;100.00
21100;BME280;10708;50.824;4.408;2023-02-18T07:03:26;101186.22;;;9.69;100.00
21100;BME280;10708;50.824;4.408;2023-02-18T07:08:29;101171.34;;;9.68;100.00
21100;BME280;10708;50.824;4.408;2023-02-18T07:13:32;101177.66;;;9.59;100.00
21100;BME280;10708;50.824;4.408;2023-02-18T07:18:35;101169.78;;;9.59;100.00
21100;BME280;10708;50.824;4.408;2023-02-18T07:23:38;101178.38;;;9.68;100.00
21100;BME280;10708;50.824;4.408;2023-02-18T07:28:41;101182.72;;;9.69;100.00
21100;BME280;10708;50.824;4.408;2023-02-18T07:33:43;101186.41;;;9.60;100.00
21100;BME280;10708;50.824;4.408;2023-02-18T07:38:47;101180.16;;;9.67;100.00
21100;BME280;10708;50.824;4.408;2023-02-18T07:43:52;101179.25;;;9.68;100.00
21100;BME280;10708;50.824;4.408;2023-02-18T07:48:55;101180.88;;;9.74;100.00
21100;BME280;10708;50.824;4.408;2023-02-18T07:54:01;101191.41;;;9.72;100.00
21100;BME280;10708;50.824;4.408;2023-02-18T07:59:04;101201.63;;;9.86;100.00
21100;BME280;10708;50.824;4.408;2023-02-18T08:04:07;101209.63;;;9.81;100.00
21100;BME280;10708;50.824;4.408;2023-02-18T08:09:11;101205.16;;;9.85;100.00
21100;BME280;10708;50.824;4.408;2023-02-18T08:14:14;101212.06;;;9.89;100.00
21100;BME280;10708;50.824;4.408;2023-02-18T08:19:19;101221.47;;;10.00;100.00
21100;BME280;10708;50.824;4.408;2023-02-18T08:24:23;101214.34;;;10.06;100.00
21100;BME280;10708;50.824;4.408;2023-02-18T08:29:25;101220.34;;;10.11;100.00
21100;BME280;10708;50.824;4.408;2023-02-18T08:34:28;101225.69;;;10.08;100.00
21100;BME280;10708;50.824;4.408;2023-02-18T08:39:34;101230.81;;;10.14;100.00
21100;BME280;10708;50.824;4.408;2023-02-18T08:44:37;101222.00;;;10.18;100.00
21100;BME280;10708;50.824;4.408;2023-02-18T08:49:39;101225.63;;;10.09;100.00
21100;BME280;10708;50.824;4.408;2023-02-18T08:54:43;101227.16;;;10.21;100.00
21100;BME280;10708;50.824;4.408;2023-02-18T08:59:45;101219.34;;;10.16;100.00
21100;BME280;10708;50.824;4.408;2023-02-18T09:04:48;101223.56;;;10.25;100.00
21100;BME280;10708;50.824;4.408;2023-02-18T09:09:52;101201.47;;;10.30;100.00
21100;BME280;10708;50.824;4.408;2023-02-18T09:14:54;101197.84;;;10.36;100.00
21100;BME280;10708;50.824;4.408;2023-02-18T09:19:57;101195.91;;;10.43;100.00
21100;BME280;10708;50.824;4.408;2023-02-18T09:25:02;101209.03;;;10.44;100.00
21100;BME280;10708;50.824;4.408;2023-02-18T09:30:05;101221.19;;;10.50;100.00
21100;BME280;10708;50.824;4.408;2023-02-18T09:35:08;101209.69;;;10.54;100.00
21100;BME280;10708;50.824;4.408;2023-02-18T09:40:23;101204.41;;;10.54;100.00
21100;BME280;10708;50.824;4.408;2023-02-18T09:45:27;101223.66;;;10.57;100.00
21100;BME280;10708;50.824;4.408;2023-02-18T09:50:32;101226.41;;;10.51;100.00
21100;BME280;10708;50.824;4.408;2023-02-18T09:55:38;101220.94;;;10.59;100.00
21100;BME280;10708;50.824;4.408;2023-02-18T10:00:43;101228.03;;;10.57;100.00
21100;BME280;10708;50.824;4.408;2023-02-18T10:05:55;101225.28;;;10.61;100.00
21100;BME280;10708;50.824;4.408;2023-02-18T10:10:59;101222.44;;;10.69;100.00
21100;BME280;10708;50.824;4.408;2023-02-18T10:16:04;101220.56;;;10.74;100.00
21100;BME280;10708;50.824;4.408;2023-02-18T10:21:10;101227.03;;;10.61;100.00
21100;BME280;10708;50.824;4.408;2023-02-18T10:26:16;101244.28;;;10.74;100.00
21100;BME280;10708;50.824;4.408;2023-02-18T10:31:23;101228.44;;;10.76;100.00
21100;BME280;10708;50.824;4.408;2023-02-18T10:36:33;101238.69;;;10.86;100.00
21100;BME280;10708;50.824;4.408;2023-02-18T10:41:46;101246.84;;;10.77;100.00
21100;BME280;10708;50.824;4.408;2023-02-18T10:46:59;101244.78;;;10.88;100.00
21100;BME280;10708;50.824;4.408;2023-02-18T10:52:08;101236.94;;;10.87;100.00
21100;BME280;10708;50.824;4.408;2023-02-18T10:57:19;101239.31;;;10.96;100.00
21100;BME280;10708;50.824;4.408;2023-02-18T11:02:24;101241.81;;;11.00;100.00
21100;BME280;10708;50.824;4.408;2023-02-18T11:07:32;101225.06;;;11.03;100.00
21100;BME280;10708;50.824;4.408;2023-02-18T11:12:44;101230.34;;;11.03;100.00
21100;BME280;10708;50.824;4.408;2023-02-18T11:17:50;101238.00;;;11.12;100.00
21100;BME280;10708;50.824;4.408;2023-02-18T11:22:57;101220.06;;;11.25;100.00
21100;BME280;10708;50.824;4.408;2023-02-18T11:28:02;101219.91;;;11.29;100.00
21100;BME280;10708;50.824;4.408;2023-02-18T11:33:08;101232.25;;;11.29;100.00
21100;BME280;10708;50.824;4.408;2023-02-18T11:38:17;101233.19;;;11.28;100.00
21100;BME280;10708;50.824;4.408;2023-02-18T11:43:28;101225.09;;;11.34;100.00
21100;BME280;10708;50.824;4.408;2023-02-18T11:48:31;101222.47;;;11.32;100.00
21100;BME280;10708;50.824;4.408;2023-02-18T11:53:37;101232.06;;;11.36;100.00
21100;BME280;10708;50.824;4.408;2023-02-18T11:58:44;101226.53;;;11.44;100.00
21100;BME280;10708;50.824;4.408;2023-02-18T12:03:51;101230.88;;;11.46;100.00
21100;BME280;10708;50.824;4.408;2023-02-18T12:09:03;101221.09;;;11.50;100.00
21100;BME280;10708;50.824;4.408;2023-02-18T12:14:14;101220.25;;;11.48;100.00
21100;BME280;10708;50.824;4.408;2023-02-18T12:19:32;101223.75;;;11.48;100.00
21100;BME280;10708;50.824;4.408;2023-02-18T12:24:47;101208.53;;;11.58;100.00
21100;BME280;10708;50.824;4.408;2023-02-18T12:30:11;101208.28;;;11.67;100.00
21100;BME280;10708;50.824;4.408;2023-02-18T12:35:51;101208.59;;;11.57;100.00
21100;BME280;10708;50.824;4.408;2023-02-18T12:41:11;101209.16;;;11.68;100.00
21100;BME280;10708;50.824;4.408;2023-02-18T12:46:32;101213.31;;;11.76;100.00
21100;BME280;10708;50.824;4.408;2023-02-18T12:51:52;101216.13;;;11.69;100.00
21100;BME280;10708;50.824;4.408;2023-02-18T12:57:23;101230.13;;;11.71;100.00
21100;BME280;10708;50.824;4.408;2023-02-18T13:02:42;101210.84;;;11.69;100.00
21100;BME280;10708;50.824;4.408;2023-02-18T13:07:59;101219.03;;;11.60;100.00
21100;BME280;10708;50.824;4.408;2023-02-18T13:13:09;101220.19;;;11.51;100.00
21100;BME280;10708;50.824;4.408;2023-02-18T13:18:15;101224.34;;;11.29;100.00
21100;BME280;10708;50.824;4.408;2023-02-18T13:23:22;101234.88;;;11.29;100.00
21100;BME280;10708;50.824;4.408;2023-02-18T13:28:30;101224.59;;;11.20;100.00
21100;BME280;10708;50.824;4.408;2023-02-18T13:33:45;101221.34;;;11.10;100.00
21100;BME280;10708;50.824;4.408;2023-02-18T13:38:54;101221.91;;;10.89;100.00
21100;BME280;10708;50.824;4.408;2023-02-18T13:43:59;101230.44;;;10.98;100.00
21100;BME280;10708;50.824;4.408;2023-02-18T13:49:08;101221.84;;;10.92;100.00
21100;BME280;10708;50.824;4.408;2023-02-18T13:54:20;101219.34;;;10.87;100.00
21100;BME280;10708;50.824;4.408;2023-02-18T13:59:32;101224.00;;;10.78;100.00
21100;BME280;10708;50.824;4.408;2023-02-18T14:04:48;101211.78;;;10.73;100.00
21100;BME280;10708;50.824;4.408;2023-02-18T14:09:52;101216.59;;;10.58;100.00
21100;BME280;10708;50.824;4.408;2023-02-18T14:14:57;101202.50;;;10.59;100.00
21100;BME280;10708;50.824;4.408;2023-02-18T14:20:31;101219.88;;;10.67;100.00
21100;BME280;10708;50.824;4.408;2023-02-18T14:25:37;101211.16;;;10.64;100.00
21100;BME280;10708;50.824;4.408;2023-02-18T14:30:41;101209.59;;;10.57;100.00
21100;BME280;10708;50.824;4.408;2023-02-18T14:35:51;101211.22;;;10.62;100.00
21100;BME280;10708;50.824;4.408;2023-02-18T14:41:10;101205.22;;;10.57;100.00
21100;BME280;10708;50.824;4.408;2023-02-18T14:46:27;101200.75;;;10.59;100.00
21100;BME280;10708;50.824;4.408;2023-02-18T14:51:35;101206.91;;;10.58;100.00
21100;BME280;10708;50.824;4.408;2023-02-18T14:56:44;101199.59;;;10.69;100.00
21100;BME280;10708;50.824;4.408;2023-02-18T15:01:53;101189.88;;;10.71;100.00
21100;BME280;10708;50.824;4.408;2023-02-18T15:06:59;101193.97;;;10.83;100.00
21100;BME280;10708;50.824;4.408;2023-02-18T15:12:04;101206.09;;;10.89;100.00
21100;BME280;10708;50.824;4.408;2023-02-18T15:17:12;101202.53;;;10.91;100.00
21100;BME280;10708;50.824;4.408;2023-02-18T15:22:20;101191.28;;;10.86;100.00
21100;BME280;10708;50.824;4.408;2023-02-18T15:27:24;101192.19;;;10.84;100.00
21100;BME280;10708;50.824;4.408;2023-02-18T15:32:30;101189.81;;;10.75;100.00
21100;BME280;10708;50.824;4.408;2023-02-18T15:37:34;101180.97;;;10.77;100.00
21100;BME280;10708;50.824;4.408;2023-02-18T15:42:37;101186.25;;;10.77;100.00
21100;BME280;10708;50.824;4.408;2023-02-18T15:47:41;101189.78;;;10.76;100.00
21100;BME280;10708;50.824;4.408;2023-02-18T15:52:46;101183.72;;;10.72;100.00
21100;BME280;10708;50.824;4.408;2023-02-18T15:57:50;101179.34;;;10.71;100.00
21100;BME280;10708;50.824;4.408;2023-02-18T16:02:55;101170.00;;;10.60;100.00
21100;BME280;10708;50.824;4.408;2023-02-18T16:08:04;101176.97;;;10.62;100.00
21100;BME280;10708;50.824;4.408;2023-02-18T16:13:12;101176.66;;;10.75;100.00
21100;BME280;10708;50.824;4.408;2023-02-18T16:18:25;101173.22;;;10.71;100.00
21100;BME280;10708;50.824;4.408;2023-02-18T16:23:42;101178.16;;;10.83;100.00
21100;BME280;10708;50.824;4.408;2023-02-18T16:28:46;101180.69;;;10.88;100.00
21100;BME280;10708;50.824;4.408;2023-02-18T16:33:50;101177.34;;;10.81;100.00
21100;BME280;10708;50.824;4.408;2023-02-18T16:38:54;101178.22;;;10.80;100.00
21100;BME280;10708;50.824;4.408;2023-02-18T16:43:58;101179.97;;;10.81;100.00
21100;BME280;10708;50.824;4.408;2023-02-18T16:49:00;101177.38;;;10.80;100.00
21100;BME280;10708;50.824;4.408;2023-02-18T16:54:04;101175.63;;;10.79;100.00
21100;BME280;10708;50.824;4.408;2023-02-18T16:59:07;101170.44;;;10.77;100.00
21100;BME280;10708;50.824;4.408;2023-02-18T17:04:12;101172.22;;;10.77;100.00
21100;BME280;10708;50.824;4.408;2023-02-18T17:09:19;101178.19;;;10.82;100.00
21100;BME280;10708;50.824;4.408;2023-02-18T17:14:22;101177.38;;;10.80;100.00
21100;BME280;10708;50.824;4.408;2023-02-18T17:19:25;101173.84;;;10.81;100.00
21100;BME280;10708;50.824;4.408;2023-02-18T17:24:29;101175.63;;;10.79;100.00
21100;BME280;10708;50.824;4.408;2023-02-18T17:29:32;101168.78;;;10.73;100.00
21100;BME280;10708;50.824;4.408;2023-02-18T17:34:34;101176.44;;;10.82;100.00
21100;BME280;10708;50.824;4.408;2023-02-18T17:39:42;101158.91;;;10.81;100.00
21100;BME280;10708;50.824;4.408;2023-02-18T17:44:44;101156.47;;;10.73;100.00
21100;BME280;10708;50.824;4.408;2023-02-18T17:49:46;101170.81;;;10.62;100.00
21100;BME280;10708;50.824;4.408;2023-02-18T17:54:50;101161.66;;;10.77;100.00
21100;BME280;10708;50.824;4.408;2023-02-18T17:59:52;101165.34;;;10.69;100.00
21100;BME280;10708;50.824;4.408;2023-02-18T18:04:55;101168.13;;;10.65;100.00
21100;BME280;10708;50.824;4.408;2023-02-18T18:09:58;101176.84;;;10.67;100.00
21100;BME280;10708;50.824;4.408;2023-02-18T18:15:01;101159.31;;;10.66;100.00
21100;BME280;10708;50.824;4.408;2023-02-18T18:20:06;101168.19;;;10.62;100.00
21100;BME280;10708;50.824;4.408;2023-02-18T18:25:16;101180.00;;;10.47;100.00
21100;BME280;10708;50.824;4.408;2023-02-18T18:30:21;101181.81;;;10.45;100.00
21100;BME280;10708;50.824;4.408;2023-02-18T18:35:28;101174.75;;;10.47;100.00
21100;BME280;10708;50.824;4.408;2023-02-18T18:40:32;101171.34;;;10.42;100.00
21100;BME280;10708;50.824;4.408;2023-02-18T18:45:35;101176.75;;;10.38;100.00
21100;BME280;10708;50.824;4.408;2023-02-18T18:50:38;101171.13;;;10.50;100.00
21100;BME280;10708;50.824;4.408;2023-02-18T18:55:43;101164.34;;;10.41;100.00
21100;BME280;10708;50.824;4.408;2023-02-18T19:00:47;101168.59;;;10.47;100.00
21100;BME280;10708;50.824;4.408;2023-02-18T19:05:51;101161.69;;;10.43;100.00
21100;BME280;10708;50.824;4.408;2023-02-18T19:10:56;101167.09;;;10.38;100.00
21100;BME280;10708;50.824;4.408;2023-02-18T19:16:00;101161.69;;;10.43;100.00
21100;BME280;10708;50.824;4.408;2023-02-18T19:21:04;101173.25;;;10.37;100.00
21100;BME280;10708;50.824;4.408;2023-02-18T19:26:08;101167.91;;;10.39;100.00
21100;BME280;10708;50.824;4.408;2023-02-18T19:31:13;101170.06;;;10.23;100.00
21100;BME280;10708;50.824;4.408;2023-02-18T19:36:23;101147.16;;;10.28;100.00
21100;BME280;10708;50.824;4.408;2023-02-18T19:41:27;101136.72;;;10.23;100.00
21100;BME280;10708;50.824;4.408;2023-02-18T19:46:29;101133.13;;;10.27;100.00
21100;BME280;10708;50.824;4.408;2023-02-18T19:51:32;101120.97;;;10.22;100.00
21100;BME280;10708;50.824;4.408;2023-02-18T19:56:36;101124.53;;;10.19;100.00
21100;BME280;10708;50.824;4.408;2023-02-18T20:01:38;101115.69;;;10.22;100.00
21100;BME280;10708;50.824;4.408;2023-02-18T20:06:41;101116.88;;;10.09;100.00
21100;BME280;10708;50.824;4.408;2023-02-18T20:11:44;101114.06;;;10.16;100.00
21100;BME280;10708;50.824;4.408;2023-02-18T20:16:47;101121.09;;;10.16;100.00
21100;BME280;10708;50.824;4.408;2023-02-18T20:21:50;101128.75;;;10.26;100.00
21100;BME280;10708;50.824;4.408;2023-02-18T20:26:58;101113.00;;;10.25;100.00
21100;BME280;10708;50.824;4.408;2023-02-18T20:32:01;101108.66;;;10.22;100.00
21100;BME280;10708;50.824;4.408;2023-02-18T20:37:04;101094.63;;;10.22;100.00
21100;BME280;10708;50.824;4.408;2023-02-18T20:42:07;101097.97;;;10.28;100.00
21100;BME280;10708;50.824;4.408;2023-02-18T20:47:10;101100.72;;;10.24;100.00
21100;BME280;10708;50.824;4.408;2023-02-18T20:52:13;101094.53;;;10.26;100.00
21100;BME280;10708;50.824;4.408;2023-02-18T20:57:17;101083.84;;;10.32;100.00
21100;BME280;10708;50.824;4.408;2023-02-18T21:02:20;101075.00;;;10.35;100.00
21100;BME280;10708;50.824;4.408;2023-02-18T21:07:25;101078.63;;;10.29;100.00
21100;BME280;10708;50.824;4.408;2023-02-18T21:12:28;101078.50;;;10.35;100.00
21100;BME280;10708;50.824;4.408;2023-02-18T21:17:31;101087.97;;;10.41;100.00
21100;BME280;10708;50.824;4.408;2023-02-18T21:22:33;101078.28;;;10.43;100.00
21100;BME280;10708;50.824;4.408;2023-02-18T21:27:39;101096.88;;;10.37;100.00
21100;BME280;10708;50.824;4.408;2023-02-18T21:32:41;101103.03;;;10.38;100.00
21100;BME280;10708;50.824;4.408;2023-02-18T21:37:44;101100.06;;;10.48;100.00
21100;BME280;10708;50.824;4.408;2023-02-18T21:42:48;101096.63;;;10.46;100.00
21100;BME280;10708;50.824;4.408;2023-02-18T21:47:50;101074.53;;;10.52;100.00
21100;BME280;10708;50.824;4.408;2023-02-18T21:52:53;101073.59;;;10.54;100.00
21100;BME280;10708;50.824;4.408;2023-02-18T21:57:56;101062.41;;;10.46;100.00
21100;BME280;10708;50.824;4.408;2023-02-18T22:02:59;101065.63;;;10.57;100.00
21100;BME280;10708;50.824;4.408;2023-02-18T22:08:01;101091.09;;;10.57;100.00
21100;BME280;10708;50.824;4.408;2023-02-18T22:13:05;101075.22;;;10.58;100.00
21100;BME280;10708;50.824;4.408;2023-02-18T22:18:07;101092.16;;;10.48;100.00
21100;BME280;10708;50.824;4.408;2023-02-18T22:23:10;101075.34;;;10.54;100.00
21100;BME280;10708;50.824;4.408;2023-02-18T22:28:14;101089.22;;;10.60;100.00
21100;BME280;10708;50.824;4.408;2023-02-18T22:33:16;101086.63;;;10.59;100.00
21100;BME280;10708;50.824;4.408;2023-02-18T22:38:19;101093.81;;;10.52;100.00
21100;BME280;10708;50.824;4.408;2023-02-18T22:43:23;101092.84;;;10.56;100.00
21100;BME280;10708;50.824;4.408;2023-02-18T22:48:25;101084.94;;;10.56;100.00
21100;BME280;10708;50.824;4.408;2023-02-18T22:53:27;101100.06;;;10.48;100.00
21100;BME280;10708;50.824;4.408;2023-02-18T22:58:32;101100.94;;;10.49;100.00
21100;BME280;10708;50.824;4.408;2023-02-18T23:03:34;101076.16;;;10.57;100.00
21100;BME280;10708;50.824;4.408;2023-02-18T23:08:37;101095.00;;;10.41;100.00
21100;BME280;10708;50.824;4.408;2023-02-18T23:13:41;101094.94;;;10.44;100.00
21100;BME280;10708;50.824;4.408;2023-02-18T23:18:43;101088.91;;;10.39;100.00
21100;BME280;10708;50.824;4.408;2023-02-18T23:23:47;101080.66;;;10.52;100.00
21100;BME280;10708;50.824;4.408;2023-02-18T23:28:51;101085.94;;;10.52;100.00
21100;BME280;10708;50.824;4.408;2023-02-18T23:33:56;101083.28;;;10.52;100.00
21100;BME280;10708;50.824;4.408;2023-02-18T23:39:00;101066.91;;;10.41;100.00
21100;BME280;10708;50.824;4.408;2023-02-18T23:44:05;101073.88;;;10.44;100.00
21100;BME280;10708;50.824;4.408;2023-02-18T23:49:11;101085.25;;;10.46;100.00
21100;BME280;10708;50.824;4.408;2023-02-18T23:54:15;101082.16;;;10.28;100.00
21100;BME280;10708;50.824;4.408;2023-02-18T23:59:19;101075.72;;;10.40;100.00
